Ayden, North Carolina
Current Conditions -  °F | °C
As of 10:35 PM on Friday 28 Nov 2014 (Local Time) from KPGV Reporting Station
Clear Clear  
Wind Chill:   Ceiling: Unl
Heat Index:   Visibility: 10mi
Dew Point: -1°   Wind: 0mph
Humidity: 93%   Direction: NA
Pressure: 30.33"   Gusts: NA
Location:  35.47°N, 77.42°W
Report Text: KPGV 290335Z AUTO 00000KT 10SM CLR 00/M01 A3033 RMK AO2
Loading
Personal Weather Stations






























Interactive Weather Map New forecast layout! Learn more

10-Day Weather Forecast

Advertisements
Track Severe Weather on mobile